Time;durP1;ratioP1;P1;durP2;ratioP2;P2;SDS_P1;SDS_P2;PMS_P1;PMS_P2;Temp;Humidity;BMP_temperature;BMP_pressure;BME280_temperature;BME280_humidity;BME280_pressure;Samples;Min_cycle;Max_cycle;Signal;HPM_P1;HPM_P2
2022/08/07 00:04:04;;;;;;;0.93;0.45;;;;;;;15.66;47.13;100931.22;10443602;28;20098;-72
2022/08/07 00:09:10;;;;;;;1.15;0.60;;;;;;;15.57;47.51;100940.34;10461779;28;20033;-71
2022/08/07 00:14:21;;;;;;;1.45;0.35;;;;;;;15.42;47.73;100932.16;10460320;28;20045;-71
2022/08/07 00:19:31;;;;;;;1.65;0.50;;;;;;;15.25;48.30;100936.28;10459853;28;20218;-72
2022/08/07 00:24:52;;;;;;;0.82;0.47;;;;;;;15.04;49.41;100940.56;10459450;28;20048;-71
2022/08/07 00:29:54;;;;;;;1.50;0.50;;;;;;;15.01;49.21;100926.59;10475989;28;20078;-72
2022/08/07 00:34:57;;;;;;;0.63;0.50;;;;;;;15.25;49.22;100927.47;10440663;28;20480;-71
2022/08/07 00:39:58;;;;;;;1.55;0.60;;;;;;;15.04;49.89;100927.31;10440933;28;20041;-71
2022/08/07 00:45:01;;;;;;;1.27;0.60;;;;;;;15.09;49.29;100925.38;10458565;28;20508;-71
2022/08/07 00:50:08;;;;;;;2.17;0.60;;;;;;;15.17;49.53;100922.44;10442049;28;20059;-71
2022/08/07 00:55:30;;;;;;;1.85;0.60;;;;;;;14.90;50.05;100926.94;10459260;28;20037;-72
2022/08/07 01:00:52;;;;;;;0.90;0.50;;;;;;;14.79;51.17;100919.41;10468372;23;20051;-72
2022/08/07 01:05:55;;;;;;;1.05;0.65;;;;;;;14.56;51.44;100911.38;10526230;28;20047;-72
2022/08/07 01:10:57;;;;;;;1.15;0.40;;;;;;;14.69;50.83;100919.75;10541700;28;20040;-72
2022/08/07 01:16:19;;;;;;;0.65;0.47;;;;;;;14.39;51.94;100917.22;10522386;28;20040;-71
2022/08/07 01:21:33;;;;;;;1.17;0.50;;;;;;;14.59;51.38;100916.56;10526308;28;20059;-74
2022/08/07 01:26:37;;;;;;;0.85;0.50;;;;;;;14.34;52.08;100908.56;10545770;28;20060;-74
2022/08/07 01:31:41;;;;;;;1.27;0.50;;;;;;;14.44;52.05;100914.44;10546524;28;20434;-74
2022/08/07 01:36:50;;;;;;;1.48;0.47;;;;;;;14.19;52.76;100915.22;10528478;28;20516;-75
2022/08/07 01:42:01;;;;;;;0.90;0.50;;;;;;;14.02;53.26;100920.19;10525048;28;20093;-70
2022/08/07 01:47:24;;;;;;;0.98;0.50;;;;;;;14.11;53.62;100923.41;10524769;28;20493;-73
2022/08/07 01:52:48;;;;;;;1.88;0.57;;;;;;;14.12;53.76;100924.25;10525434;28;20066;-69
2022/08/07 01:57:58;;;;;;;4.18;0.82;;;;;;;13.85;54.70;100915.44;10525327;28;20499;-70
2022/08/07 02:03:22;;;;;;;0.60;0.40;;;;;;;14.08;54.17;100927.94;10539969;28;20047;-70
2022/08/07 02:08:47;;;;;;;0.57;0.30;;;;;;;14.09;53.89;100927.88;10549427;28;20032;-70
2022/08/07 02:13:58;;;;;;;1.13;0.50;;;;;;;13.91;54.39;100924.97;10548016;28;20118;-71
2022/08/07 02:19:08;;;;;;;0.88;0.43;;;;;;;13.39;55.96;100927.41;10549288;28;20059;-73
2022/08/07 02:24:32;;;;;;;0.30;0.30;;;;;;;13.36;56.16;100932.75;10548250;28;20042;-70
2022/08/07 02:29:35;;;;;;;0.52;0.30;;;;;;;13.29;56.61;100925.94;10549134;28;20040;-73
2022/08/07 02:34:58;;;;;;;0.63;0.50;;;;;;;13.45;56.07;100926.34;10549177;28;20126;-72
2022/08/07 02:40:04;;;;;;;2.67;0.70;;;;;;;13.61;55.90;100938.19;10547728;28;20147;-72
2022/08/07 02:45:30;;;;;;;0.65;0.40;;;;;;;13.27;56.78;100938.31;10547441;28;20058;-72
2022/08/07 02:50:54;;;;;;;1.55;0.45;;;;;;;13.33;57.30;100930.22;10548532;28;20051;-72
2022/08/07 02:56:00;;;;;;;2.05;0.50;;;;;;;13.36;56.88;100930.97;10546250;28;20492;-72
2022/08/07 03:01:10;;;;;;;2.55;0.50;;;;;;;13.05;57.86;100930.09;10528930;28;20048;-71
2022/08/07 03:06:33;;;;;;;1.43;0.37;;;;;;;12.97;57.98;100927.69;10528121;28;20040;-72
2022/08/07 03:11:37;;;;;;;1.00;0.47;;;;;;;12.67;59.31;100925.84;10527029;28;20139;-72
2022/08/07 03:16:59;;;;;;;2.20;0.63;;;;;;;12.64;59.81;100926.78;10514802;28;20131;-72
2022/08/07 03:22:07;;;;;;;1.63;0.55;;;;;;;12.62;59.78;100921.56;10547176;28;20036;-72
2022/08/07 03:27:20;;;;;;;1.65;0.50;;;;;;;12.87;59.37;100912.97;10529147;28;20051;-72
2022/08/07 03:32:46;;;;;;;1.40;0.52;;;;;;;12.80;59.27;100917.56;10527240;28;20044;-72
2022/08/07 03:38:02;;;;;;;;;;;;;;;12.45;60.79;100917.63;10528594;28;20076;-72
2022/08/07 03:43:06;;;;;;;1.10;0.60;;;;;;;12.37;60.83;100905.50;10527180;28;19920;-72
2022/08/07 03:48:19;;;;;;;1.35;0.68;;;;;;;12.57;60.51;100915.56;10526986;28;20040;-72
2022/08/07 03:53:21;;;;;;;0.88;0.50;;;;;;;12.62;60.42;100912.78;10545006;28;20040;-72
2022/08/07 03:58:44;;;;;;;1.02;0.50;;;;;;;12.38;61.13;100906.34;10545982;28;20040;-72
2022/08/07 04:04:07;;;;;;;5.07;0.70;;;;;;;12.44;60.90;100910.59;10526592;28;20410;-72
2022/08/07 04:09:20;;;;;;;1.80;0.60;;;;;;;12.60;59.81;100920.72;10528355;28;20040;-73
2022/08/07 04:14:27;;;;;;;3.13;0.68;;;;;;;12.46;60.68;100912.31;10526243;28;20531;-72
2022/08/07 04:19:41;;;;;;;0.90;0.60;;;;;;;12.41;60.81;100913.34;10526676;28;20417;-72
2022/08/07 04:24:55;;;;;;;1.08;0.52;;;;;;;12.49;61.21;100916.66;10526218;28;20056;-73
2022/08/07 04:29:59;;;;;;;1.73;0.73;;;;;;;12.47;61.52;100923.72;10524409;28;20043;-72
2022/08/07 04:35:20;;;;;;;1.42;0.80;;;;;;;12.55;60.21;100925.25;10523748;28;20067;-73
2022/08/07 04:40:24;;;;;;;0.75;0.50;;;;;;;12.60;60.44;100914.59;10523938;28;20074;-72
2022/08/07 04:45:59;;;;;;;1.73;0.70;;;;;;;12.81;60.08;100929.00;10524403;28;20147;-72
2022/08/07 04:51:15;;;;;;;1.42;0.80;;;;;;;12.97;59.99;100927.69;10501090;28;20048;-72
2022/08/07 04:56:30;;;;;;;1.45;0.80;;;;;;;13.04;59.97;100928.34;10524157;28;20085;-72
2022/08/07 05:02:01;;;;;;;3.60;1.70;;;;;;;13.09;60.38;100927.31;10525595;28;20421;-72
2022/08/07 05:07:17;;;;;;;2.90;2.08;;;;;;;13.03;60.38;100930.13;10523559;28;20043;-72
2022/08/07 05:12:43;;;;;;;2.30;2.10;;;;;;;13.33;59.92;100927.59;10523542;28;20105;-73
2022/08/07 05:17:58;;;;;;;2.10;1.40;;;;;;;13.52;58.30;100928.75;10507667;28;20040;-72
2022/08/07 05:23:10;;;;;;;1.55;1.10;;;;;;;13.58;58.10;100940.91;10541770;28;20047;-72
2022/08/07 05:28:20;;;;;;;1.88;1.00;;;;;;;13.76;57.84;100939.50;10523562;28;20047;-72
2022/08/07 05:33:30;;;;;;;1.58;1.00;;;;;;;14.45;55.41;100929.38;10523401;28;20510;-72
2022/08/07 05:38:39;;;;;;;1.65;1.08;;;;;;;14.43;55.73;100941.78;10524915;28;20036;-72
2022/08/07 05:44:03;;;;;;;2.30;1.45;;;;;;;14.32;55.78;100937.72;10525698;28;20051;-73
2022/08/07 05:49:18;;;;;;;1.35;1.00;;;;;;;14.36;55.33;100930.53;10543599;28;20028;-73
2022/08/07 05:54:24;;;;;;;2.70;1.27;;;;;;;14.77;54.24;100952.13;10524935;28;20072;-72
2022/08/07 05:59:41;;;;;;;1.23;0.70;;;;;;;15.06;53.18;100941.38;10522505;28;20048;-73
2022/08/07 06:05:07;;;;;;;2.90;0.93;;;;;;;15.56;52.10;100949.25;10523910;28;20493;-73
2022/08/07 06:10:17;;;;;;;0.88;0.80;;;;;;;16.49;50.44;100946.50;10523710;28;20048;-73
2022/08/07 06:15:22;;;;;;;1.55;0.90;;;;;;;17.09;48.33;100940.38;10525107;28;20481;-72
2022/08/07 06:20:46;;;;;;;1.08;0.80;;;;;;;17.54;46.51;100933.03;10524915;28;20063;-72
2022/08/07 06:26:13;;;;;;;1.35;0.80;;;;;;;17.71;46.59;100940.19;10526033;28;20160;-73
2022/08/07 06:31:15;;;;;;;1.52;0.82;;;;;;;18.17;44.75;100930.06;10525392;28;20044;-73
2022/08/07 06:36:18;;;;;;;1.65;0.60;;;;;;;18.42;45.21;100938.56;10506661;28;20048;-73
2022/08/07 06:41:41;;;;;;;2.10;0.82;;;;;;;18.63;44.44;100934.81;10523121;28;20054;-73
2022/08/07 06:47:24;;;;;;;1.80;0.77;;;;;;;19.47;43.16;100939.34;10525132;28;20066;-71
2022/08/07 06:52:34;;;;;;;2.92;0.70;;;;;;;19.90;42.20;100943.22;10531328;28;20492;-71
2022/08/07 06:57:44;;;;;;;3.30;0.80;;;;;;;19.93;42.57;100928.84;10531328;28;20036;-71
2022/08/07 07:02:58;;;;;;;0.95;0.80;;;;;;;20.07;42.14;100931.59;10537007;28;20056;-73
2022/08/07 07:08:02;;;;;;;1.23;0.70;;;;;;;20.59;41.64;100926.78;10548723;28;20038;-72
2022/08/07 07:13:31;;;;;;;3.03;0.93;;;;;;;21.05;40.66;100925.81;10530929;28;20040;-71
2022/08/07 07:19:00;;;;;;;2.20;0.65;;;;;;;20.69;41.01;100918.22;10547756;28;20097;-72
2022/08/07 07:24:22;;;;;;;1.75;0.70;;;;;;;21.29;40.24;100916.25;10547947;28;20044;-73
2022/08/07 07:29:29;;;;;;;3.08;0.95;;;;;;;21.27;39.62;100914.66;10547717;28;20097;-72
2022/08/07 07:34:58;;;;;;;2.17;0.70;;;;;;;21.44;39.00;100914.47;10546888;28;20507;-71
2022/08/07 07:40:04;;;;;;;2.25;0.60;;;;;;;21.87;38.35;100903.72;10548045;28;20036;-72
2022/08/07 07:45:17;;;;;;;;;;;;;;;22.46;36.89;100895.38;10547321;28;20044;-70
2022/08/07 07:50:24;;;;;;;1.58;0.70;;;;;;;22.55;36.28;100890.25;10548408;28;19927;-72
2022/08/07 07:55:38;;;;;;;1.60;0.68;;;;;;;22.80;36.14;100892.09;10546564;28;20134;-73
2022/08/07 08:00:57;;;;;;;3.25;0.73;;;;;;;22.77;35.93;100889.63;10547225;28;20115;-72
2022/08/07 08:06:00;;;;;;;1.92;0.65;;;;;;;22.71;35.21;100882.03;10549014;28;20043;-73
2022/08/07 08:11:05;;;;;;;0.77;0.60;;;;;;;22.96;35.29;100893.75;10550208;28;20040;-73
2022/08/07 08:16:18;;;;;;;1.30;0.50;;;;;;;23.15;34.78;100889.66;10549392;28;20054;-72
2022/08/07 08:27:05;;;;;;;4.90;0.80;;;;;;;23.26;33.37;100886.22;10546862;28;19920;-72
2022/08/07 08:32:14;;;;;;;1.48;0.55;;;;;;;23.73;32.86;100883.75;10545313;28;20104;-73
2022/08/07 08:37:20;;;;;;;2.53;0.50;;;;;;;23.65;31.99;100873.59;10544963;28;20397;-73
2022/08/07 08:42:48;;;;;;;0.80;0.40;;;;;;;24.21;31.45;100867.66;10545552;28;20089;-72
2022/08/07 08:48:08;;;;;;;1.42;0.43;;;;;;;24.41;30.47;100861.66;10545956;28;20098;-72
2022/08/07 08:53:24;;;;;;;0.75;0.40;;;;;;;25.08;29.13;100859.13;10545073;28;20046;-73
2022/08/07 08:58:32;;;;;;;1.92;0.40;;;;;;;24.43;30.93;100862.41;10545622;28;20032;-74
2022/08/07 09:03:51;;;;;;;0.88;0.38;;;;;;;24.05;30.63;100855.41;10540150;28;20061;-74
2022/08/07 09:09:11;;;;;;;0.43;0.30;;;;;;;24.62;30.06;100851.97;10545157;28;20115;-74
2022/08/07 09:14:37;;;;;;;1.07;0.40;;;;;;;25.48;29.98;100853.22;10544709;28;20100;-74
2022/08/07 09:19:57;;;;;;;0.40;0.30;;;;;;;25.26;29.86;100855.94;10545138;28;20403;-73
2022/08/07 09:25:20;;;;;;;1.95;0.40;;;;;;;25.48;29.15;100849.69;10542597;28;20080;-72
2022/08/07 09:30:32;;;;;;;1.65;0.30;;;;;;;25.39;29.31;100840.50;10543847;28;20118;-73
2022/08/07 09:35:46;;;;;;;1.08;0.40;;;;;;;26.23;28.28;100825.47;10543215;28;20040;-72
2022/08/07 09:41:33;;;;;;;0.60;0.30;;;;;;;26.09;28.92;100823.09;10546406;28;20066;-73
2022/08/07 09:47:08;;;;;;;0.57;0.32;;;;;;;26.39;27.92;100820.47;10544786;28;20515;-73
2022/08/07 09:52:44;;;;;;;1.90;0.50;;;;;;;26.17;28.62;100818.75;10544303;28;20048;-73
2022/08/07 09:57:55;;;;;;;2.53;0.30;;;;;;;25.89;29.08;100816.66;10544362;28;20040;-73
2022/08/07 10:03:30;;;;;;;1.27;0.40;;;;;;;25.05;29.17;100807.34;10542863;28;20082;-72
2022/08/07 10:09:04;;;;;;;0.68;0.32;;;;;;;24.70;29.65;100794.03;10524018;28;20055;-72
2022/08/07 10:14:23;;;;;;;1.10;0.30;;;;;;;25.73;28.66;100774.00;10544317;28;20040;-73
2022/08/07 10:19:42;;;;;;;1.10;0.40;;;;;;;26.85;27.03;100786.84;10543703;28;20042;-73
2022/08/07 10:25:10;;;;;;;3.33;0.20;;;;;;;26.93;27.35;100775.38;10550362;28;20110;-72
2022/08/07 10:30:41;;;;;;;0.73;0.25;;;;;;;27.27;26.49;100759.75;10551162;28;20040;-72
2022/08/07 10:36:06;;;;;;;0.93;0.40;;;;;;;26.72;26.61;100720.63;10552164;28;20044;-72
2022/08/07 10:41:28;;;;;;;1.60;0.30;;;;;;;26.65;27.38;100764.34;10533338;28;20380;-73
2022/08/07 10:47:12;;;;;;;0.55;0.20;;;;;;;27.79;25.62;100756.84;10551249;28;20048;-73
2022/08/07 10:52:25;;;;;;;2.05;0.20;;;;;;;28.04;25.87;100748.16;10551322;28;20115;-73
2022/08/07 10:58:25;;;;;;;0.90;0.20;;;;;;;27.73;25.50;100742.06;10550743;28;20062;-73
2022/08/07 11:03:44;;;;;;;0.90;0.20;;;;;;;28.13;24.70;100731.06;10521639;28;20110;-73
2022/08/07 11:09:10;;;;;;;2.33;0.38;;;;;;;27.74;24.96;100722.16;10552806;28;20119;-72
2022/08/07 11:14:40;;;;;;;0.82;0.30;;;;;;;27.74;25.40;100718.59;10549674;28;20043;-72
2022/08/07 11:20:13;;;;;;;0.88;0.17;;;;;;;27.37;25.81;100713.88;10549859;28;20039;-72
2022/08/07 11:25:29;;;;;;;1.33;0.20;;;;;;;27.19;24.75;100697.50;10550020;28;20040;-72
2022/08/07 11:30:50;;;;;;;0.68;0.20;;;;;;;26.84;25.37;100701.50;10548099;28;20550;-72
2022/08/07 11:36:23;;;;;;;0.43;0.17;;;;;;;28.03;24.60;100681.59;10549417;28;20044;-72
2022/08/07 11:41:41;;;;;;;0.40;0.20;;;;;;;28.37;24.44;100678.38;10549175;28;20386;-72
2022/08/07 11:47:12;;;;;;;1.85;0.25;;;;;;;28.49;23.66;100677.19;10547829;28;20450;-72
2022/08/07 11:53:05;;;;;;;0.50;0.20;;;;;;;28.82;23.70;100674.88;10549150;28;20044;-72
2022/08/07 11:58:29;;;;;;;0.68;0.15;;;;;;;28.77;23.19;100660.97;10378175;28;20057;-72
2022/08/07 12:03:34;;;;;;;1.95;0.32;;;;;;;28.76;22.97;100659.25;10378122;28;20081;-73
2022/08/07 12:09:00;;;;;;;2.00;0.30;;;;;;;28.84;23.33;100653.97;10378869;28;20434;-72
2022/08/07 12:14:15;;;;;;;0.20;0.20;;;;;;;28.22;23.95;100648.25;10361196;28;20061;-73
2022/08/07 12:19:34;;;;;;;1.83;0.20;;;;;;;28.04;23.71;100645.44;10378771;28;20086;-73
2022/08/07 12:30:51;;;;;;;0.88;0.45;;;;;;;28.03;23.45;100634.81;10405233;28;20059;-73
2022/08/07 12:35:56;;;;;;;0.45;0.20;;;;;;;27.87;23.98;100630.00;10545238;28;20081;-73
2022/08/07 12:41:01;;;;;;;1.13;0.30;;;;;;;28.49;23.75;100623.09;10545875;28;20036;-73
2022/08/07 12:46:20;;;;;;;0.93;0.30;;;;;;;27.97;24.37;100622.72;10543687;28;20048;-72
2022/08/07 12:51:45;;;;;;;1.10;0.40;;;;;;;28.05;24.27;100628.22;10544481;28;20040;-72
2022/08/07 12:57:08;;;;;;;1.48;0.30;;;;;;;27.69;23.93;100623.59;10545225;28;20100;-72
2022/08/07 13:02:49;;;;;;;1.63;0.40;;;;;;;26.91;24.71;100619.03;10544090;28;20040;-72
2022/08/07 13:07:57;;;;;;;1.08;0.30;;;;;;;27.44;24.68;100616.94;10517163;22;20578;-69
2022/08/07 13:13:58;;;;;;;0.45;0.30;;;;;;;27.67;24.63;100612.97;10506301;28;20484;-69
2022/08/07 13:19:15;;;;;;;1.20;0.50;;;;;;;27.17;24.38;100597.78;10541474;28;20086;-69
2022/08/07 13:24:26;;;;;;;1.00;0.30;;;;;;;27.04;24.47;100599.88;10526502;28;20050;-69
2022/08/07 13:29:54;;;;;;;0.90;0.30;;;;;;;26.79;25.11;100595.88;10523995;28;20198;-69
2022/08/07 13:35:41;;;;;;;0.30;0.20;;;;;;;26.69;25.04;100584.22;10523142;28;20044;-69
2022/08/07 13:41:07;;;;;;;;;;;;;;;26.89;24.29;100585.94;10526977;28;20118;-69
2022/08/07 13:46:13;;;;;;;1.38;0.20;;;;;;;26.77;24.75;100567.34;10542597;28;19959;-69
2022/08/07 13:51:30;;;;;;;1.75;0.22;;;;;;;26.85;24.89;100571.03;10522482;28;20044;-68
2022/08/07 13:56:55;;;;;;;2.42;0.30;;;;;;;26.64;25.43;100564.91;10530516;28;20036;-68
2022/08/07 14:02:08;;;;;;;0.93;0.50;;;;;;;26.36;25.20;100561.13;10550889;28;20048;-68
2022/08/07 14:07:12;;;;;;;0.95;0.30;;;;;;;25.54;26.08;100553.91;10550025;28;20047;-68
2022/08/07 14:12:35;;;;;;;7.78;0.40;;;;;;;25.48;26.66;100559.81;10549774;28;20511;-68
2022/08/07 14:17:44;;;;;;;2.92;0.38;;;;;;;25.43;26.25;100548.59;10530820;28;20046;-69
2022/08/07 14:23:16;;;;;;;1.35;0.30;;;;;;;25.61;26.23;100547.00;10549054;28;20048;-67
2022/08/07 14:28:41;;;;;;;0.47;0.17;;;;;;;25.66;26.44;100538.53;10549843;28;20046;-68
2022/08/07 14:34:00;;;;;;;1.02;0.40;;;;;;;25.44;26.49;100541.38;10516908;28;20091;-68
2022/08/07 14:39:09;;;;;;;0.82;0.30;;;;;;;25.48;26.55;100532.91;10548948;28;20051;-68
2022/08/07 14:44:32;;;;;;;0.68;0.22;;;;;;;25.70;25.97;100522.97;10547435;28;20072;-68
2022/08/07 14:49:36;;;;;;;2.92;0.28;;;;;;;25.90;25.82;100533.75;10528836;28;20090;-69
2022/08/07 14:55:00;;;;;;;0.85;0.30;;;;;;;25.67;26.11;100529.47;10529535;28;20040;-69
2022/08/07 15:00:03;;;;;;;0.30;0.20;;;;;;;25.64;26.43;100527.91;10529605;28;20138;-69
2022/08/07 15:05:08;;;;;;;0.73;0.47;;;;;;;25.51;26.30;100526.44;10546641;28;20429;-69
2022/08/07 15:10:26;;;;;;;1.33;0.43;;;;;;;25.60;26.21;100529.16;10528170;28;20385;-69
2022/08/07 15:15:39;;;;;;;0.80;0.30;;;;;;;25.58;26.32;100532.97;10548565;28;20044;-69
2022/08/07 15:20:42;;;;;;;1.58;0.30;;;;;;;25.40;25.78;100530.88;10546298;28;20116;-69
2022/08/07 15:25:58;;;;;;;0.88;0.30;;;;;;;25.12;26.68;100516.25;10546961;28;20044;-69
2022/08/07 15:31:03;;;;;;;0.57;0.40;;;;;;;25.30;26.64;100518.34;10546100;28;20067;-68
2022/08/07 15:36:08;;;;;;;0.75;0.20;;;;;;;25.32;26.01;100517.25;10547820;28;20051;-69
2022/08/07 15:41:16;;;;;;;0.80;0.30;;;;;;;25.37;26.08;100509.63;10545705;28;20118;-69
2022/08/07 15:46:39;;;;;;;1.52;0.40;;;;;;;25.18;25.85;100506.78;10545631;28;20462;-68
2022/08/07 15:51:54;;;;;;;1.45;0.30;;;;;;;25.89;25.17;100504.22;10545631;28;20042;-68
2022/08/07 15:56:59;;;;;;;2.53;0.50;;;;;;;27.43;24.13;100500.00;10528030;28;20044;-67
2022/08/07 16:02:04;;;;;;;0.40;0.28;;;;;;;28.32;22.74;100489.53;10526681;28;20336;-67
2022/08/07 16:07:11;;;;;;;1.48;0.43;;;;;;;27.79;23.23;100495.66;10526040;28;20050;-68
2022/08/07 16:12:39;;;;;;;1.08;0.40;;;;;;;27.12;24.33;100484.00;10545116;28;20410;-69
2022/08/07 16:18:14;;;;;;;0.35;0.20;;;;;;;26.07;24.80;100489.13;10543310;28;20437;-68
2022/08/07 16:23:59;;;;;;;2.40;0.40;;;;;;;25.44;25.41;100483.03;10544241;28;20099;-68
2022/08/07 16:29:38;;;;;;;0.85;0.35;;;;;;;25.13;25.92;100488.34;10543368;28;20437;-68
2022/08/07 16:35:12;;;;;;;0.63;0.35;;;;;;;24.88;26.41;100486.88;10510618;28;20401;-69
2022/08/07 16:41:02;;;;;;;0.88;0.30;;;;;;;24.90;26.22;100484.06;10544313;28;20552;-68
2022/08/07 16:46:18;;;;;;;1.20;0.50;;;;;;;24.88;26.52;100483.31;10524532;28;20485;-69
2022/08/07 16:52:07;;;;;;;1.40;0.38;;;;;;;24.64;26.94;100481.72;10542703;28;20392;-68
2022/08/07 16:57:34;;;;;;;3.38;0.40;;;;;;;24.57;27.09;100482.34;10542447;28;20039;-68
2022/08/07 17:03:18;;;;;;;0.95;0.35;;;;;;;24.39;27.15;100479.34;10524958;28;20040;-68
2022/08/07 17:08:55;;;;;;;0.90;0.30;;;;;;;24.30;27.19;100477.41;10541778;28;20548;-69
2022/08/07 17:14:31;;;;;;;1.08;0.68;;;;;;;24.38;27.32;100475.81;10522843;28;20048;-68
2022/08/07 17:19:39;;;;;;;0.63;0.32;;;;;;;24.25;27.63;100483.16;10522794;28;20036;-70
2022/08/07 17:25:17;;;;;;;1.20;0.40;;;;;;;24.09;28.12;100475.50;10522628;28;20043;-68
2022/08/07 17:30:21;;;;;;;2.25;0.30;;;;;;;24.07;28.46;100480.13;10541229;28;20048;-69
2022/08/07 17:35:56;;;;;;;1.13;0.50;;;;;;;24.01;28.00;100475.25;10506711;28;20565;-68
2022/08/07 17:41:14;;;;;;;1.77;0.50;;;;;;;23.95;28.72;100480.25;10523116;28;20046;-70
2022/08/07 17:46:51;;;;;;;1.13;0.88;;;;;;;23.88;28.88;100487.97;10541405;28;20079;-69
2022/08/07 17:52:08;;;;;;;1.30;0.55;;;;;;;23.63;29.26;100480.97;10541448;28;20044;-70
2022/08/07 17:57:50;;;;;;;1.85;0.60;;;;;;;23.67;29.23;100482.47;10542385;28;20048;-69
2022/08/07 18:03:31;;;;;;;4.43;0.50;;;;;;;23.42;29.97;100486.22;10543853;28;20474;-69
2022/08/07 18:08:57;;;;;;;0.80;0.50;;;;;;;23.28;29.87;100489.97;10544315;28;20099;-68
2022/08/07 18:14:12;;;;;;;1.05;0.80;;;;;;;23.21;29.97;100483.38;10541900;28;20122;-69
2022/08/07 18:19:23;;;;;;;2.70;1.00;;;;;;;23.25;29.74;100492.91;10523395;28;20485;-69
2022/08/07 18:24:57;;;;;;;2.58;0.80;;;;;;;23.12;30.07;100487.63;10540592;28;20044;-68
2022/08/07 18:30:04;;;;;;;1.77;0.63;;;;;;;23.03;30.65;100492.84;10540212;28;20538;-67
2022/08/07 18:35:40;;;;;;;1.65;0.50;;;;;;;22.70;30.88;100491.69;10521774;28;20059;-69
2022/08/07 18:41:25;;;;;;;1.55;0.70;;;;;;;22.51;31.29;100497.59;10521789;28;20568;-70
2022/08/07 18:47:05;;;;;;;1.90;0.70;;;;;;;22.52;31.63;100506.47;10548389;28;20044;-69
2022/08/07 18:52:25;;;;;;;1.70;0.70;;;;;;;22.36;31.86;100507.63;10548341;28;20062;-70
2022/08/07 18:58:08;;;;;;;1.60;0.85;;;;;;;22.14;32.22;100515.50;10549081;28;20085;-70
2022/08/07 19:03:29;;;;;;;4.15;0.80;;;;;;;22.04;32.44;100530.47;10528669;28;20467;-69
2022/08/07 19:08:44;;;;;;;1.67;0.80;;;;;;;22.07;32.58;100531.09;10471535;23;20086;-72
2022/08/07 19:14:08;;;;;;;1.63;0.93;;;;;;;21.94;32.72;100540.97;10459228;28;20076;-72
2022/08/07 19:19:36;;;;;;;3.17;0.95;;;;;;;21.61;33.43;100547.75;10508693;28;20045;-72
2022/08/07 19:24:42;;;;;;;2.17;1.05;;;;;;;21.49;33.66;100545.06;10490729;28;20127;-72
2022/08/07 19:29:51;;;;;;;2.00;0.90;;;;;;;21.36;34.06;100545.91;10491331;28;20055;-73
2022/08/07 19:35:18;;;;;;;1.75;0.75;;;;;;;21.35;35.48;100557.56;10490951;28;20045;-72
2022/08/07 19:40:31;;;;;;;1.33;0.82;;;;;;;21.15;35.14;100550.84;10510636;28;20036;-72
2022/08/07 19:45:39;;;;;;;2.28;1.30;;;;;;;21.39;35.80;100560.91;10508704;28;20049;-72
2022/08/07 19:51:04;;;;;;;1.20;1.10;;;;;;;20.86;36.19;100560.00;10507339;28;20041;-72
2022/08/07 19:56:27;;;;;;;2.72;1.13;;;;;;;20.75;36.99;100567.84;10487553;28;20048;-72
2022/08/07 20:01:53;;;;;;;2.17;1.30;;;;;;;20.66;37.10;100567.47;10475273;28;20127;-72
2022/08/07 20:06:59;;;;;;;1.60;1.42;;;;;;;20.30;37.68;100568.00;10473053;28;20404;-73
2022/08/07 20:12:01;;;;;;;2.30;1.10;;;;;;;20.08;38.44;100565.84;10504762;28;20079;-73
2022/08/07 20:17:25;;;;;;;2.50;1.38;;;;;;;20.17;38.33;100569.75;10503571;28;20040;-72
2022/08/07 20:22:29;;;;;;;2.00;1.25;;;;;;;19.96;38.96;100571.94;10485120;28;20049;-72
2022/08/07 20:27:37;;;;;;;3.38;1.25;;;;;;;19.89;39.07;100578.63;10503567;28;20452;-73
2022/08/07 20:32:53;;;;;;;2.50;1.45;;;;;;;19.39;39.94;100587.88;10502652;28;20043;-72
2022/08/07 20:37:56;;;;;;;1.42;1.00;;;;;;;19.24;40.18;100584.28;10502018;28;20135;-73
2022/08/07 20:43:03;;;;;;;1.90;1.30;;;;;;;19.14;41.03;100573.31;10501751;28;20040;-73
2022/08/07 20:48:25;;;;;;;2.80;1.67;;;;;;;19.21;41.10;100587.13;10501837;28;20041;-72
2022/08/07 20:53:34;;;;;;;3.05;1.70;;;;;;;19.19;40.78;100591.69;10501365;28;20064;-74
2022/08/07 20:59:00;;;;;;;1.83;1.20;;;;;;;18.80;41.76;100592.19;10482890;28;20040;-74
2022/08/07 21:04:04;;;;;;;2.05;1.52;;;;;;;18.63;42.25;100596.63;10500674;28;20083;-73
2022/08/07 21:09:37;;;;;;;2.15;1.33;;;;;;;18.81;42.29;100601.88;10484986;28;20039;-73
2022/08/07 21:15:04;;;;;;;2.83;1.35;;;;;;;18.67;42.46;100602.66;10482867;28;20048;-73
2022/08/07 21:20:12;;;;;;;2.65;1.38;;;;;;;18.57;42.98;100612.97;10465931;28;20052;-73
2022/08/07 21:25:38;;;;;;;2.20;1.35;;;;;;;18.36;43.46;100600.81;10500206;28;20071;-73
2022/08/07 21:31:01;;;;;;;2.88;1.13;;;;;;;18.33;43.26;100609.84;10501110;28;20101;-73
2022/08/07 21:36:06;;;;;;;2.40;1.33;;;;;;;17.95;43.92;100617.25;10482703;28;20041;-73
2022/08/07 21:41:28;;;;;;;3.30;1.55;;;;;;;18.10;44.08;100624.38;10500971;28;20382;-73
2022/08/07 21:47:08;;;;;;;1.85;1.13;;;;;;;18.16;43.92;100623.22;10500660;28;20451;-73
2022/08/07 21:52:31;;;;;;;2.25;1.20;;;;;;;17.96;44.22;100626.06;10501499;28;20041;-72
2022/08/07 21:58:11;;;;;;;1.90;1.30;;;;;;;17.80;44.64;100626.03;10500494;28;20447;-74
2022/08/07 22:03:45;;;;;;;2.35;1.02;;;;;;;17.61;44.74;100626.06;10484728;28;20044;-73
2022/08/07 22:08:57;;;;;;;1.80;1.20;;;;;;;17.55;45.28;100626.41;10499736;28;20072;-73
2022/08/07 22:14:02;;;;;;;2.95;1.10;;;;;;;17.36;45.67;100626.47;10500006;28;20072;-73
2022/08/07 22:19:26;;;;;;;1.10;0.90;;;;;;;17.14;46.38;100630.22;10505493;28;20048;-72
2022/08/07 22:24:40;;;;;;;3.35;1.23;;;;;;;17.21;46.42;100632.53;10506617;28;20453;-74
2022/08/07 22:29:54;;;;;;;2.88;1.20;;;;;;;16.86;47.18;100624.50;10506762;28;20397;-74
2022/08/07 22:35:00;;;;;;;2.72;1.10;;;;;;;17.06;46.83;100624.41;10505800;28;20040;-74
2022/08/07 22:40:21;;;;;;;1.90;1.10;;;;;;;16.89;46.93;100635.00;10505651;28;20047;-73
2022/08/07 22:45:54;;;;;;;2.95;1.00;;;;;;;16.81;47.31;100624.72;10505819;28;20041;-73
2022/08/07 22:51:42;;;;;;;2.15;1.17;;;;;;;16.55;47.91;100628.59;10487569;28;20098;-73
2022/08/07 22:57:04;;;;;;;2.30;1.30;;;;;;;16.60;48.21;100631.03;10505046;28;20044;-73
2022/08/07 23:02:12;;;;;;;2.13;1.10;;;;;;;16.42;48.83;100640.72;10505736;28;20480;-73
2022/08/07 23:07:38;;;;;;;2.70;1.15;;;;;;;16.40;48.85;100637.28;10487212;28;20052;-74
2022/08/07 23:13:13;;;;;;;2.10;1.10;;;;;;;16.36;48.99;100636.56;10504618;28;20045;-73
2022/08/07 23:20:21;;;;;;;1.85;1.20;;;;;;;16.37;48.47;100638.28;10504608;28;20050;-73
2022/08/07 23:24:49;;;;;;;1.75;0.98;;;;;;;16.67;48.56;100645.75;10504195;28;20094;-73
2022/08/07 23:30:04;;;;;;;2.45;0.98;;;;;;;16.60;48.52;100642.53;10485519;28;20416;-73
2022/08/07 23:35:54;;;;;;;1.38;0.82;;;;;;;16.22;49.57;100646.09;10504121;28;20047;-73
2022/08/07 23:41:39;;;;;;;2.80;1.10;;;;;;;16.21;49.41;100647.03;10503386;28;20036;-73
2022/08/07 23:47:21;;;;;;;1.50;1.02;;;;;;;16.07;50.02;100648.50;10488416;28;20052;-73
2022/08/07 23:52:36;;;;;;;1.17;0.80;;;;;;;16.05;49.95;100653.00;10503311;28;20397;-73
2022/08/07 23:58:07;;;;;;;2.33;1.40;;;;;;;16.17;49.77;100641.00;10503173;28;20047;-73
